createdAt,value
2019-04-06T00:00:35.739Z,8.40
2019-04-06T00:03:03.979Z,9.80
2019-04-06T00:05:32.258Z,10.03
2019-04-06T00:08:00.525Z,9.37
2019-04-06T00:10:28.810Z,10.17
2019-04-06T00:12:57.074Z,9.23
2019-04-06T00:15:25.348Z,10.60
2019-04-06T00:17:53.631Z,9.23
2019-04-06T00:20:21.903Z,9.83
2019-04-06T00:22:50.176Z,10.65
2019-04-06T00:25:18.507Z,10.97
2019-04-06T00:27:46.716Z,10.70
2019-04-06T00:30:15.237Z,10.13
2019-04-06T00:32:47.934Z,10.30
2019-04-06T00:35:16.228Z,11.70
2019-04-06T00:37:44.492Z,12.13
2019-04-06T00:40:12.846Z,12.27
2019-04-06T00:42:41.113Z,10.65
2019-04-06T00:45:09.478Z,11.67
2019-04-06T00:47:37.723Z,11.90
2019-04-06T00:50:07.381Z,11.67
2019-04-06T00:52:35.642Z,9.63
2019-04-06T00:55:05.277Z,10.57
2019-04-06T00:57:33.542Z,9.80
2019-04-06T01:00:01.892Z,11.00
2019-04-06T01:02:30.177Z,10.20
2019-04-06T01:04:58.451Z,10.83
2019-04-06T01:07:26.718Z,11.23
2019-04-06T01:09:55.016Z,10.90
2019-04-06T01:12:23.285Z,11.57
2019-04-06T01:14:51.587Z,10.17
2019-04-06T01:17:19.833Z,10.30
2019-04-06T01:19:48.110Z,10.03
2019-04-06T01:22:16.368Z,10.77
2019-04-06T01:24:44.655Z,11.87
2019-04-06T01:27:12.938Z,12.27
2019-04-06T01:29:41.224Z,11.87
2019-04-06T01:32:09.552Z,11.93
2019-04-06T01:34:37.840Z,11.80
2019-04-06T01:37:06.110Z,11.07
2019-04-06T01:39:34.389Z,10.80
2019-04-06T01:42:09.454Z,11.50
2019-04-06T01:44:37.743Z,11.88
2019-04-06T01:47:06.000Z,11.47
2019-04-06T01:49:34.270Z,12.20
2019-04-06T01:52:02.584Z,11.63
2019-04-06T01:54:30.839Z,11.57
2019-04-06T01:56:59.115Z,12.70
2019-04-06T01:59:27.449Z,13.07
2019-04-06T02:02:03.153Z,13.20
2019-04-06T02:04:31.458Z,12.07
2019-04-06T02:06:59.735Z,12.00
2019-04-06T02:09:28.024Z,12.03
2019-04-06T02:11:56.289Z,12.43
2019-04-06T02:14:24.554Z,10.87
2019-04-06T02:16:52.838Z,12.27
2019-04-06T02:19:21.100Z,12.83
2019-04-06T02:21:49.461Z,13.57
2019-04-06T02:24:17.792Z,11.88
2019-04-06T02:26:46.088Z,11.57
2019-04-06T02:29:14.342Z,13.23
2019-04-06T02:31:49.739Z,13.43
2019-04-06T02:34:31.532Z,12.63
2019-04-06T02:37:16.125Z,13.00
2019-04-06T02:39:51.934Z,21.07
2019-04-06T02:42:22.005Z,12.13
2019-04-06T02:44:50.434Z,13.47
2019-04-06T02:47:18.835Z,12.30
2019-04-06T02:49:47.165Z,13.13
2019-04-06T02:52:15.463Z,12.60
2019-04-06T02:54:43.736Z,12.57
2019-04-06T02:57:12.041Z,18.87
2019-04-06T02:59:40.502Z,11.33
2019-04-06T03:02:08.791Z,11.10
2019-04-06T03:04:37.069Z,11.80
2019-04-06T03:07:05.367Z,10.53
2019-04-06T03:09:33.602Z,11.00
2019-04-06T03:12:02.050Z,11.70
2019-04-06T03:14:30.385Z,11.50
2019-04-06T03:16:58.664Z,12.43
2019-04-06T03:19:27.316Z,11.87
2019-04-06T03:21:55.624Z,13.07
2019-04-06T03:24:23.846Z,12.10
2019-04-06T03:27:00.668Z,13.97
2019-04-06T03:29:22.264Z,13.77
2019-04-06T03:31:50.490Z,12.97
2019-04-06T03:34:21.577Z,12.47
2019-04-06T03:36:48.783Z,13.53
2019-04-06T03:39:17.048Z,11.83
2019-04-06T03:41:45.317Z,13.30
2019-04-06T03:44:13.593Z,13.53
2019-04-06T03:46:41.864Z,12.33
2019-04-06T03:49:10.129Z,12.10
2019-04-06T03:51:38.474Z,12.33
2019-04-06T03:54:06.742Z,13.00
2019-04-06T03:56:35.024Z,13.50
2019-04-06T03:59:03.304Z,13.57
2019-04-06T04:01:31.607Z,14.60
2019-04-06T04:03:59.872Z,13.83
2019-04-06T04:06:28.127Z,13.70
2019-04-06T04:08:56.441Z,11.80
2019-04-06T04:11:24.947Z,9.97
2019-04-06T04:13:53.270Z,10.70
2019-04-06T04:16:21.515Z,11.63
2019-04-06T04:18:49.978Z,10.32
2019-04-06T04:21:18.344Z,10.50
2019-04-06T04:23:46.608Z,9.10
2019-04-06T04:26:14.874Z,10.23
2019-04-06T04:28:43.152Z,10.10
2019-04-06T04:31:11.495Z,10.80
2019-04-06T04:33:39.789Z,11.73
2019-04-06T04:36:08.124Z,10.40
2019-04-06T04:38:36.410Z,11.13
2019-04-06T04:41:04.673Z,9.97
2019-04-06T04:43:32.955Z,10.37
2019-04-06T04:46:01.219Z,9.63
2019-04-06T04:48:29.622Z,9.73
2019-04-06T04:50:57.886Z,10.93
2019-04-06T04:53:26.170Z,10.37
2019-04-06T04:55:54.434Z,9.77
2019-04-06T04:58:22.720Z,9.73
2019-04-06T05:00:51.201Z,10.10
2019-04-06T05:03:19.515Z,9.60
2019-04-06T05:05:47.746Z,9.97
2019-04-06T05:08:16.022Z,9.77
2019-04-06T05:10:45.182Z,9.40
2019-04-06T05:13:13.505Z,9.70
2019-04-06T05:15:53.654Z,10.17
2019-04-06T05:18:21.939Z,10.60
2019-04-06T05:20:50.269Z,10.27
2019-04-06T05:23:18.569Z,10.23
2019-04-06T05:25:46.823Z,10.23
2019-04-06T05:28:15.260Z,9.60
2019-04-06T05:30:43.556Z,8.63
2019-04-06T05:33:11.816Z,9.07
2019-04-06T05:35:40.297Z,8.97
2019-04-06T05:38:08.629Z,8.47
2019-04-06T05:40:37.039Z,9.43
2019-04-06T05:43:05.300Z,9.23
2019-04-06T05:45:33.573Z,8.73
2019-04-06T05:48:01.839Z,7.67
2019-04-06T05:50:30.198Z,8.27
2019-04-06T05:52:58.454Z,7.07
2019-04-06T05:55:26.727Z,7.77
2019-04-06T05:58:03.717Z,7.73
2019-04-06T06:00:25.154Z,7.73
2019-04-06T06:02:53.411Z,8.67
2019-04-06T06:05:21.885Z,8.27
2019-04-06T06:07:50.217Z,8.57
2019-04-06T06:10:18.869Z,9.30
2019-04-06T06:12:47.179Z,8.07
2019-04-06T06:15:15.500Z,8.27
2019-04-06T06:17:43.792Z,8.77
2019-04-06T06:20:12.067Z,7.50
2019-04-06T06:22:40.349Z,7.10
2019-04-06T06:25:08.665Z,6.37
2019-04-06T06:27:36.928Z,6.77
2019-04-06T06:30:06.764Z,6.73
2019-04-06T06:32:35.030Z,7.57
2019-04-06T06:35:03.456Z,6.23
2019-04-06T06:37:31.819Z,5.60
2019-04-06T06:40:00.098Z,5.80
2019-04-06T06:42:28.479Z,6.70
2019-04-06T06:44:56.710Z,5.70
2019-04-06T06:47:24.963Z,6.15
2019-04-06T06:49:54.817Z,6.40
2019-04-06T06:52:23.153Z,7.13
2019-04-06T06:54:51.472Z,6.87
2019-04-06T06:57:19.776Z,6.83
2019-04-06T06:59:48.095Z,6.67
2019-04-06T07:02:16.384Z,6.07
2019-04-06T07:04:44.838Z,6.23
2019-04-06T07:07:13.156Z,5.83
2019-04-06T07:09:41.406Z,5.63
2019-04-06T07:12:09.733Z,5.63
2019-04-06T07:14:38.074Z,5.60
2019-04-06T07:17:06.349Z,5.30
2019-04-06T07:19:34.593Z,5.00
2019-04-06T07:22:02.897Z,5.33
2019-04-06T07:24:31.139Z,5.57
2019-04-06T07:26:59.615Z,4.73
2019-04-06T07:29:27.871Z,5.30
2019-04-06T07:31:56.145Z,5.63
2019-04-06T07:34:24.418Z,6.03
2019-04-06T07:36:52.710Z,5.63
2019-04-06T07:39:21.186Z,4.73
2019-04-06T07:41:49.432Z,5.00
2019-04-06T07:44:17.758Z,4.83
2019-04-06T07:46:46.138Z,5.77
2019-04-06T07:49:14.718Z,4.20
2019-04-06T07:51:43.056Z,4.57
2019-04-06T07:54:11.334Z,4.77
2019-04-06T07:56:39.615Z,4.63
2019-04-06T07:59:07.888Z,4.10
2019-04-06T08:01:36.230Z,4.27
2019-04-06T08:04:04.853Z,3.73
2019-04-06T08:06:34.076Z,3.37
2019-04-06T08:09:02.373Z,3.57
2019-04-06T08:11:30.651Z,4.00
2019-04-06T08:13:58.915Z,5.10
2019-04-06T08:16:27.191Z,4.50
2019-04-06T08:18:55.442Z,4.87
2019-04-06T08:21:23.851Z,4.30
2019-04-06T08:23:52.121Z,4.60
2019-04-06T08:26:20.617Z,6.27
2019-04-06T08:28:59.796Z,6.97
2019-04-06T08:31:18.940Z,6.13
2019-04-06T08:33:47.235Z,7.80
2019-04-06T08:36:16.257Z,7.03
2019-04-06T08:41:12.431Z,7.20
2019-04-06T08:43:40.734Z,7.97
2019-04-06T08:46:09.031Z,7.93
2019-04-06T08:48:37.567Z,8.17
2019-04-06T08:51:05.893Z,8.87
2019-04-06T08:53:34.311Z,9.20
2019-04-06T08:56:02.689Z,9.03
2019-04-06T08:58:30.973Z,9.43
2019-04-06T09:00:59.215Z,9.63
2019-04-06T09:03:27.513Z,9.67
2019-04-06T09:05:55.779Z,11.40
2019-04-06T09:08:24.056Z,9.93
2019-04-06T09:10:52.444Z,9.20
2019-04-06T09:13:21.014Z,10.20
2019-04-06T09:15:49.499Z,10.80
2019-04-06T09:18:17.813Z,10.97
2019-04-06T09:23:37.488Z,10.97
2019-04-06T09:26:05.790Z,10.50
2019-04-06T09:28:34.078Z,11.67
2019-04-06T09:31:02.351Z,10.30
2019-04-06T09:33:30.637Z,11.00
2019-04-06T09:35:58.923Z,11.80
2019-04-06T09:38:27.476Z,11.07
2019-04-06T09:40:55.802Z,11.80
2019-04-06T09:43:24.402Z,12.43
2019-04-06T09:45:57.198Z,11.40
2019-04-06T09:48:33.055Z,12.67
2019-04-06T09:51:08.943Z,12.03
2019-04-06T09:53:47.964Z,10.27
2019-04-06T09:56:17.839Z,8.53
2019-04-06T09:58:50.531Z,11.13
2019-04-06T10:01:38.967Z,10.47
2019-04-06T10:04:10.374Z,7.73
2019-04-06T10:06:52.215Z,10.07
2019-04-06T10:09:37.362Z,10.28
2019-04-06T10:12:23.128Z,10.05
2019-04-06T10:14:55.616Z,10.30
2019-04-06T10:17:28.469Z,9.90
2019-04-06T10:20:01.125Z,11.53
2019-04-06T10:22:39.759Z,12.00
2019-04-06T10:25:18.638Z,12.58
2019-04-06T10:27:51.451Z,9.53
2019-04-06T10:30:21.355Z,12.60
2019-04-06T10:32:53.827Z,13.38
2019-04-06T10:35:38.880Z,13.55
2019-04-06T10:38:24.940Z,12.05
2019-04-06T10:41:03.784Z,15.00
2019-04-06T10:43:36.260Z,14.50
2019-04-06T10:46:08.924Z,15.10
2019-04-06T10:48:48.091Z,14.70
2019-04-06T10:51:17.999Z,16.73
2019-04-06T10:53:56.727Z,17.65
2019-04-06T10:56:32.186Z,17.07
2019-04-06T10:59:18.502Z,17.05
2019-04-06T11:01:48.452Z,17.17
2019-04-06T11:04:21.093Z,15.45
2019-04-06T11:06:56.502Z,15.70
2019-04-06T11:09:31.906Z,16.32
2019-04-06T11:12:01.828Z,14.90
2019-04-06T11:14:37.638Z,17.62
2019-04-06T11:17:13.751Z,17.30
2019-04-06T11:19:50.618Z,16.85
2019-04-06T11:22:23.487Z,17.17
2019-04-06T11:24:59.387Z,17.00
2019-04-06T11:27:45.167Z,16.40
2019-04-06T11:30:21.101Z,15.30
2019-04-06T11:33:09.008Z,13.25
2019-04-06T11:35:41.459Z,16.57
2019-04-06T11:38:11.438Z,15.78
2019-04-06T11:40:56.655Z,13.75
2019-04-06T11:43:26.633Z,15.15
2019-04-06T11:46:07.882Z,13.72
2019-04-06T11:48:37.790Z,15.30
2019-04-06T11:51:22.955Z,16.00
2019-04-06T11:53:58.406Z,15.50
2019-04-06T11:56:46.270Z,17.15
2019-04-06T11:59:18.941Z,15.00
2019-04-06T12:01:54.343Z,14.47
2019-04-06T12:04:24.262Z,14.40
2019-04-06T12:07:09.801Z,13.53
2019-04-06T12:09:39.720Z,11.83
2019-04-06T12:12:21.418Z,13.68
2019-04-06T12:14:57.108Z,14.78
2019-04-06T12:17:29.757Z,12.53
2019-04-06T12:20:02.241Z,13.00
2019-04-06T12:22:41.876Z,13.13
2019-04-06T12:27:52.936Z,12.00
2019-04-06T12:30:39.430Z,12.40
2019-04-06T12:33:25.583Z,10.08
2019-04-06T12:35:58.242Z,10.30
2019-04-06T12:38:44.294Z,11.45
2019-04-06T12:41:30.708Z,10.23
2019-04-06T12:44:03.201Z,11.88
2019-04-06T12:46:52.079Z,10.58
2019-04-06T12:52:03.848Z,11.68
2019-04-06T12:54:39.242Z,9.60
2019-04-06T12:57:12.225Z,11.25
2019-04-06T12:59:47.916Z,11.28
2019-04-06T13:02:20.272Z,10.93
2019-04-06T13:05:06.339Z,11.18
2019-04-06T13:07:42.101Z,9.87
2019-04-06T13:10:14.698Z,9.85
2019-04-06T13:12:44.626Z,10.90
2019-04-06T13:15:18.082Z,10.70
2019-04-06T13:18:02.848Z,11.10
2019-04-06T13:20:35.880Z,9.95
2019-04-06T13:23:18.216Z,9.73
2019-04-06T13:25:56.971Z,8.98
2019-04-06T13:28:29.751Z,9.78
2019-04-06T13:31:17.951Z,9.40
2019-04-06T13:33:56.817Z,8.68
2019-04-06T13:36:27.027Z,8.70
2019-04-06T13:38:56.937Z,8.65
2019-04-06T13:41:29.842Z,8.88
2019-04-06T13:44:16.326Z,7.50
2019-04-06T13:47:02.737Z,8.55
2019-04-06T13:49:38.542Z,9.38
2019-04-06T13:52:11.239Z,7.85
2019-04-06T13:54:41.261Z,8.03
2019-04-06T13:57:22.940Z,8.03
2019-04-06T13:59:53.140Z,7.95
2019-04-06T14:02:26.034Z,9.33
2019-04-06T14:05:10.943Z,9.53
2019-04-06T14:07:43.705Z,9.20
2019-04-06T14:10:16.084Z,9.33
2019-04-06T14:13:04.592Z,8.83
2019-04-06T14:15:52.571Z,8.20
2019-04-06T14:18:28.525Z,8.30
2019-04-06T14:21:04.515Z,9.08
2019-04-06T14:23:50.830Z,9.28
2019-04-06T14:26:35.646Z,8.88
2019-04-06T14:29:23.854Z,8.38
2019-04-06T14:31:56.821Z,8.83
2019-04-06T14:34:42.951Z,8.80
2019-04-06T14:37:24.845Z,9.28
2019-04-06T14:40:10.571Z,9.83
2019-04-06T14:42:43.207Z,11.17
2019-04-06T14:45:21.675Z,10.10
2019-04-06T14:47:51.615Z,10.03
2019-04-06T14:50:21.527Z,10.63
2019-04-06T14:52:57.451Z,9.88
2019-04-06T14:55:27.754Z,11.57
2019-04-06T14:58:00.227Z,11.10
2019-04-06T15:00:46.344Z,11.25
2019-04-06T15:03:28.262Z,11.70
2019-04-06T15:06:16.286Z,12.18
2019-04-06T15:08:46.657Z,11.57
2019-04-06T15:11:19.057Z,13.48
2019-04-06T15:13:52.018Z,15.55
2019-04-06T15:16:24.552Z,15.78
2019-04-06T15:19:00.220Z,13.60
2019-04-06T15:21:35.796Z,12.58
2019-04-06T15:24:17.855Z,13.88
2019-04-06T15:26:47.760Z,13.45
2019-04-06T15:29:29.964Z,14.55
2019-04-06T15:32:02.999Z,12.65
2019-04-06T15:34:48.813Z,15.05
2019-04-06T15:37:24.713Z,14.35
2019-04-06T15:40:03.206Z,13.90
2019-04-06T15:53:43.176Z,12.20
2019-04-06T15:56:14.068Z,11.78
2019-04-06T15:58:44.011Z,13.65
2019-04-06T16:01:28.670Z,17.52
2019-04-06T16:04:04.073Z,13.00
2019-04-06T16:06:39.951Z,12.47
2019-04-06T16:09:10.073Z,12.13
2019-04-06T16:11:42.512Z,12.13
2019-04-06T16:14:15.171Z,13.68
2019-04-06T16:16:45.080Z,11.28
2019-04-06T16:19:20.989Z,12.00
2019-04-06T16:22:06.915Z,12.95
2019-04-06T16:24:39.538Z,16.10
2019-04-06T16:27:18.697Z,14.70
2019-04-06T16:29:48.750Z,12.95
2019-04-06T16:32:18.716Z,13.32
2019-04-06T16:34:51.804Z,12.10
2019-04-06T16:37:36.206Z,12.48
2019-04-06T16:40:08.047Z,12.00
2019-04-06T16:42:43.569Z,13.57
2019-04-06T16:45:16.082Z,13.05
2019-04-06T16:47:46.110Z,13.22
2019-04-06T16:50:25.280Z,13.35
2019-04-06T16:52:55.306Z,14.15
2019-04-06T16:55:41.795Z,12.10
2019-04-06T16:58:28.261Z,13.68
2019-04-06T17:01:04.373Z,12.90
2019-04-06T17:03:43.106Z,13.05
2019-04-06T17:06:18.620Z,13.00
2019-04-06T17:08:57.675Z,12.13
2019-04-06T17:11:27.937Z,13.38
2019-04-06T17:14:00.506Z,16.45
2019-04-06T17:16:42.128Z,13.08
2019-04-06T17:19:27.030Z,13.15
2019-04-06T17:22:05.779Z,13.60
2019-04-06T17:24:36.236Z,12.63
2019-04-06T17:27:22.080Z,12.47
2019-04-06T17:30:00.808Z,12.55
2019-04-06T17:32:39.514Z,17.60
2019-04-06T17:35:24.233Z,14.37
2019-04-06T17:37:56.702Z,13.40
2019-04-06T17:40:35.662Z,13.25
2019-04-06T17:43:21.767Z,13.30
2019-04-06T17:45:54.149Z,12.95
2019-04-06T17:48:40.261Z,14.43
2019-04-06T17:51:19.274Z,13.93
2019-04-06T17:54:05.262Z,14.50
2019-04-06T17:56:35.208Z,14.55
2019-04-06T17:59:05.549Z,13.72
2019-04-06T18:01:52.058Z,13.28
2019-04-06T18:04:33.959Z,13.32
2019-04-06T18:07:07.452Z,14.00
2019-04-06T18:09:37.382Z,12.53
2019-04-06T18:12:10.120Z,13.37
2019-04-06T18:14:38.546Z,12.73
2019-04-06T18:17:06.961Z,13.00
2019-04-06T18:19:35.289Z,12.57
2019-04-06T18:22:04.084Z,13.23
2019-04-06T18:24:32.737Z,12.67
2019-04-06T18:27:01.114Z,13.37
2019-04-06T18:29:29.837Z,12.67
2019-04-06T18:32:15.293Z,12.37
2019-04-06T18:34:43.555Z,13.57
2019-04-06T18:37:22.415Z,13.67
2019-04-06T18:39:58.106Z,12.90
2019-04-06T18:42:26.398Z,13.00
2019-04-06T18:44:54.669Z,15.20
2019-04-06T18:47:23.156Z,14.57
2019-04-06T18:49:51.426Z,13.87
2019-04-06T18:52:20.075Z,14.17
2019-04-06T18:54:48.547Z,13.97
2019-04-06T18:57:17.277Z,13.60
2019-04-06T18:59:46.032Z,14.23
2019-04-06T19:02:14.772Z,13.68
2019-04-06T19:04:43.106Z,14.73
2019-04-06T19:07:11.405Z,13.97
2019-04-06T19:09:39.711Z,14.80
2019-04-06T19:12:07.949Z,14.87
2019-04-06T19:14:36.348Z,13.73
2019-04-06T19:17:04.606Z,13.77
2019-04-06T19:19:32.923Z,15.53
2019-04-06T19:22:01.437Z,15.53
2019-04-06T19:24:30.288Z,14.87
2019-04-06T19:26:58.985Z,15.80
2019-04-06T19:29:27.430Z,14.67
2019-04-06T19:31:57.951Z,16.00
2019-04-06T19:34:25.986Z,15.97
2019-04-06T19:36:54.318Z,15.47
2019-04-06T19:39:22.588Z,16.30
2019-04-06T19:41:51.072Z,15.67
2019-04-06T19:44:19.368Z,16.35
2019-04-06T19:46:47.856Z,16.47
2019-04-06T19:49:16.147Z,16.67
2019-04-06T19:51:44.417Z,16.30
2019-04-06T19:54:13.027Z,17.97
2019-04-06T19:56:41.431Z,16.03
2019-04-06T19:59:09.859Z,19.50
2019-04-06T20:01:38.971Z,18.10
2019-04-06T20:04:07.245Z,15.73
2019-04-06T20:06:35.522Z,14.97
2019-04-06T20:09:05.513Z,16.50
2019-04-06T20:11:34.705Z,16.30
2019-04-06T20:14:03.151Z,15.03
2019-04-06T20:16:31.871Z,15.63
2019-04-06T20:19:00.199Z,15.60
2019-04-06T20:21:28.529Z,15.53
2019-04-06T20:23:57.229Z,15.27
2019-04-06T20:26:25.522Z,14.70
2019-04-06T20:28:53.785Z,15.00
2019-04-06T20:31:22.459Z,14.63
2019-04-06T20:33:52.378Z,15.93
2019-04-06T20:36:20.813Z,15.60
2019-04-06T20:38:49.115Z,14.97
2019-04-06T20:41:17.397Z,14.47
2019-04-06T20:43:45.663Z,14.50
2019-04-06T20:46:13.949Z,15.00
2019-04-06T20:48:42.217Z,15.63
2019-04-06T20:51:10.570Z,15.60
2019-04-06T20:53:38.855Z,14.43
2019-04-06T20:56:07.143Z,13.80
2019-04-06T20:58:35.911Z,15.17
2019-04-06T21:01:04.381Z,14.78
2019-04-06T21:03:32.652Z,16.80
2019-04-06T21:06:00.955Z,18.73
2019-04-06T21:08:29.715Z,17.07
2019-04-06T21:10:58.063Z,17.30
2019-04-06T21:13:26.727Z,16.80
2019-04-06T21:15:55.481Z,18.07
2019-04-06T21:18:24.358Z,17.57
2019-04-06T21:20:54.259Z,18.42
2019-04-06T21:23:22.843Z,17.90
2019-04-06T21:25:51.851Z,17.80
2019-04-06T21:28:21.169Z,17.70
2019-04-06T21:30:49.487Z,17.60
2019-04-06T21:33:17.705Z,17.47
2019-04-06T21:35:45.998Z,18.10
2019-04-06T21:38:14.273Z,17.60
2019-04-06T21:40:42.539Z,17.53
2019-04-06T21:43:10.800Z,17.10
2019-04-06T21:45:39.409Z,18.07
2019-04-06T21:48:07.676Z,17.23
2019-04-06T21:50:35.976Z,17.23
2019-04-06T21:53:04.357Z,18.87
2019-04-06T21:55:32.576Z,18.13
2019-04-06T21:58:00.838Z,15.63
2019-04-06T22:00:33.352Z,17.50
2019-04-06T22:03:01.661Z,16.17
2019-04-06T22:05:29.923Z,17.23
2019-04-06T22:07:58.246Z,17.17
2019-04-06T22:10:26.512Z,18.53
2019-04-06T22:12:54.764Z,16.80
2019-04-06T22:15:23.067Z,16.73
2019-04-06T22:17:51.363Z,16.30
2019-04-06T22:20:19.753Z,15.87
2019-04-06T22:22:48.205Z,14.93
2019-04-06T22:25:16.408Z,15.67
2019-04-06T22:27:44.948Z,14.70
2019-04-06T22:30:16.058Z,15.50
2019-04-06T22:32:43.303Z,14.40
2019-04-06T22:35:11.595Z,15.10
2019-04-06T22:37:39.863Z,15.43
2019-04-06T22:40:08.597Z,15.70
2019-04-06T22:42:37.128Z,15.37
2019-04-06T22:45:09.766Z,14.80
2019-04-06T22:47:38.166Z,14.53
2019-04-06T22:50:07.029Z,14.20
2019-04-06T22:52:35.419Z,14.18
2019-04-06T22:55:07.455Z,13.57
2019-04-06T22:57:36.124Z,14.20
2019-04-06T23:00:06.811Z,14.67
2019-04-06T23:02:39.659Z,15.50
2019-04-06T23:05:18.872Z,15.13
2019-04-06T23:07:47.246Z,14.30
2019-04-06T23:10:15.817Z,13.67
2019-04-06T23:12:44.160Z,14.27
2019-04-06T23:15:12.629Z,14.93
2019-04-06T23:17:40.863Z,14.50
2019-04-06T23:20:09.510Z,15.13
2019-04-06T23:22:37.879Z,13.03
2019-04-06T23:25:06.132Z,14.37
2019-04-06T23:27:34.410Z,14.77
2019-04-06T23:30:03.116Z,15.37
2019-04-06T23:32:31.914Z,15.80
2019-04-06T23:35:02.293Z,15.50
2019-04-06T23:37:30.260Z,14.77
2019-04-06T23:39:59.044Z,14.27
2019-04-06T23:42:27.414Z,15.25
2019-04-06T23:44:55.663Z,14.90
2019-04-06T23:47:23.953Z,14.73
2019-04-06T23:49:52.323Z,15.17
2019-04-06T23:52:20.563Z,14.57
2019-04-06T23:54:48.835Z,15.37
2019-04-06T23:57:17.133Z,15.47
2019-04-06T23:59:45.386Z,16.07
